Time;durP1;ratioP1;P1;durP2;ratioP2;P2;SDS_P1;SDS_P2;PMS_P1;PMS_P2;Temp;Humidity;BMP_temperature;BMP_pressure;BME280_temperature;BME280_humidity;BME280_pressure;Samples;Min_cycle;Max_cycle;Signal;HPM_P1;HPM_P2
2023/08/26 00:01:53;;;;;;;0.00;0.00;;;;;;;-144.99;100.00;67352.69;5011877;28;20180;-78
2023/08/26 00:04:21;;;;;;;0.00;0.00;;;;;;;-144.99;100.00;67352.69;5010953;28;20240;-78
2023/08/26 00:06:46;;;;;;;0.00;0.00;;;;;;;-144.99;100.00;67352.69;5010837;28;20200;-78
2023/08/26 00:09:11;;;;;;;0.00;0.00;;;;;;;-144.99;100.00;67352.69;5011459;28;20314;-78
2023/08/26 00:11:37;;;;;;;0.10;0.10;;;;;;;-144.99;100.00;67352.69;5011522;28;20185;-78
2023/08/26 00:14:03;;;;;;;0.00;0.00;;;;;;;-144.99;100.00;67352.69;5011575;28;20184;-78
2023/08/26 00:16:29;;;;;;;0.20;0.20;;;;;;;-144.99;100.00;67352.69;5011133;28;20601;-78
2023/08/26 00:18:55;;;;;;;0.73;0.63;;;;;;;-144.99;100.00;67352.69;4993554;28;20188;-78
2023/08/26 00:21:21;;;;;;;0.20;0.20;;;;;;;-144.99;100.00;67352.69;4993984;28;20215;-78
2023/08/26 00:23:49;;;;;;;3.40;1.70;;;;;;;-144.99;100.00;67352.69;5011625;28;20668;-78
2023/08/26 00:26:16;;;;;;;1.97;1.87;;;;;;;-144.99;100.00;67352.69;4997555;28;20204;-78
2023/08/26 00:28:42;;;;;;;0.30;0.27;;;;;;;-144.99;100.00;67352.69;5015696;28;20265;-78
2023/08/26 00:31:07;;;;;;;1.97;1.77;;;;;;;-144.99;100.00;67352.69;5015650;28;20184;-78
2023/08/26 00:33:32;;;;;;;10.33;1.50;;;;;;;-144.99;100.00;67352.69;5015411;28;20195;-79
2023/08/26 00:35:58;;;;;;;0.60;0.60;;;;;;;-144.99;100.00;67352.69;5015758;28;20205;-79
2023/08/26 00:38:23;;;;;;;0.10;0.10;;;;;;;-144.99;100.00;67352.69;5000949;28;20172;-79
2023/08/26 00:40:48;;;;;;;1.10;0.83;;;;;;;-144.99;100.00;67352.69;5018432;28;20250;-79
2023/08/26 00:43:14;;;;;;;1.57;1.47;;;;;;;-144.99;100.00;67352.69;5018703;28;20248;-79
2023/08/26 00:45:42;;;;;;;0.93;0.73;;;;;;;-144.99;100.00;67352.69;4999329;28;20212;-79
2023/08/26 00:48:11;;;;;;;0.40;0.40;;;;;;;-144.99;100.00;67352.69;5000215;28;20215;-79
2023/08/26 00:50:38;;;;;;;0.57;0.57;;;;;;;-144.99;100.00;67352.69;5000122;28;20188;-78
2023/08/26 00:53:04;;;;;;;0.53;0.53;;;;;;;-144.99;100.00;67352.69;4999962;28;20181;-78
2023/08/26 00:55:30;;;;;;;0.07;0.07;;;;;;;-144.99;100.00;67352.69;5016789;28;20208;-78
2023/08/26 00:57:56;;;;;;;0.63;0.63;;;;;;;-144.99;100.00;67352.69;5017369;28;20172;-78
2023/08/26 01:00:22;;;;;;;0.00;0.00;;;;;;;-144.99;100.00;67352.69;5017243;28;20173;-79
2023/08/26 01:02:49;;;;;;;0.10;0.10;;;;;;;-144.99;100.00;67352.69;5016844;28;20187;-79
2023/08/26 01:05:14;;;;;;;1.00;0.70;;;;;;;-144.99;100.00;67352.69;4998804;28;20255;-78
2023/08/26 01:07:40;;;;;;;0.00;0.00;;;;;;;-144.99;100.00;67352.69;5016282;28;20232;-79
2023/08/26 01:10:06;;;;;;;1.47;0.47;;;;;;;-144.99;100.00;67352.69;4998530;28;20620;-78
2023/08/26 01:12:56;;;;;;;1.13;1.13;;;;;;;-144.99;100.00;67352.69;4998819;28;20683;-79
2023/08/26 01:15:24;;;;;;;0.00;0.00;;;;;;;-144.99;100.00;67352.69;5016039;28;20220;-78
2023/08/26 01:17:50;;;;;;;0.53;0.53;;;;;;;-144.99;100.00;67352.69;5015927;28;20336;-78
2023/08/26 01:20:16;;;;;;;10.50;1.17;;;;;;;-144.99;100.00;67352.69;5015847;28;20683;-79
2023/08/26 01:22:44;;;;;;;0.27;0.20;;;;;;;-144.99;100.00;67352.69;4998144;28;20263;-78
2023/08/26 01:25:09;;;;;;;0.00;0.00;;;;;;;-144.99;100.00;67352.69;5015283;28;20204;-79
2023/08/26 01:27:34;;;;;;;0.17;0.17;;;;;;;-144.99;100.00;67352.69;5015158;28;20215;-78
2023/08/26 01:30:00;;;;;;;0.57;0.57;;;;;;;-144.99;100.00;67352.69;5015361;28;20193;-78
2023/08/26 01:32:40;;;;;;;0.00;0.00;;;;;;;-144.99;100.00;67352.69;4997647;28;20215;-78
2023/08/26 01:35:15;;;;;;;2.23;2.07;;;;;;;-144.99;100.00;67352.69;4997113;28;20210;-78
2023/08/26 01:37:45;;;;;;;0.50;0.50;;;;;;;-144.99;100.00;67352.69;4996207;28;20261;-78
2023/08/26 01:40:11;;;;;;;0.63;0.63;;;;;;;-144.99;100.00;67352.69;5015046;28;20183;-78
2023/08/26 01:42:40;;;;;;;1.73;1.63;;;;;;;-144.99;100.00;67352.69;5014892;28;20227;-78
2023/08/26 01:45:06;;;;;;;2.80;2.57;;;;;;;-144.99;100.00;67352.69;5014821;28;20212;-78
2023/08/26 01:47:32;;;;;;;2.43;1.17;;;;;;;-144.99;100.00;67352.69;4996426;28;20261;-78
2023/08/26 01:49:57;;;;;;;2.07;1.97;;;;;;;-144.99;100.00;67352.69;5014795;28;20204;-78
2023/08/26 01:52:22;;;;;;;0.93;0.93;;;;;;;-144.99;100.00;67352.69;4996958;28;20180;-78
2023/08/26 01:54:49;;;;;;;4.93;1.13;;;;;;;-144.99;100.00;67352.69;4996625;28;20209;-78
2023/08/26 01:57:15;;;;;;;4.80;1.83;;;;;;;-144.99;100.00;67352.69;5013729;28;20181;-78
2023/08/26 01:59:42;;;;;;;0.80;0.80;;;;;;;-144.99;100.00;67352.69;5014103;28;20264;-78
2023/08/26 02:02:07;;;;;;;3.90;3.57;;;;;;;-144.99;100.00;67352.69;5014233;28;20212;-78
2023/08/26 02:04:32;;;;;;;0.57;0.57;;;;;;;-144.99;100.00;67352.69;5014035;28;20762;-78
2023/08/26 02:06:58;;;;;;;1.03;1.03;;;;;;;-144.99;100.00;67352.69;4995741;28;20296;-78
2023/08/26 02:09:23;;;;;;;0.63;0.63;;;;;;;-144.99;100.00;67352.69;5013881;28;20640;-78
2023/08/26 02:11:48;;;;;;;0.47;0.47;;;;;;;-144.99;100.00;67352.69;5014018;28;20180;-78
2023/08/26 02:14:14;;;;;;;0.00;0.00;;;;;;;-144.99;100.00;67352.69;4996439;28;20874;-78
2023/08/26 02:16:39;;;;;;;0.10;0.10;;;;;;;-144.99;100.00;67352.69;5013661;28;20184;-79
2023/08/26 02:19:04;;;;;;;1.97;1.87;;;;;;;-144.99;100.00;67352.69;5013923;28;20199;-78
2023/08/26 02:21:29;;;;;;;1.03;1.03;;;;;;;-144.99;100.00;67352.69;4996091;28;20575;-79
2023/08/26 02:23:55;;;;;;;0.87;0.87;;;;;;;-144.99;100.00;67352.69;4995979;28;20671;-78
2023/08/26 02:26:20;;;;;;;2.37;2.23;;;;;;;-144.99;100.00;67352.69;5013354;28;20200;-78
2023/08/26 02:28:46;;;;;;;1.40;1.20;;;;;;;-144.99;100.00;67352.69;5013884;28;20211;-79
2023/08/26 02:31:11;;;;;;;4.50;1.97;;;;;;;-144.99;100.00;67352.69;5014104;28;20537;-78
2023/08/26 02:33:36;;;;;;;2.63;2.53;;;;;;;-144.99;100.00;67352.69;5013816;28;20180;-78
2023/08/26 02:36:02;;;;;;;2.73;2.40;;;;;;;-144.99;100.00;67352.69;5011875;28;20689;-78
2023/08/26 02:38:27;;;;;;;4.87;3.33;;;;;;;-144.99;100.00;67352.69;4994594;28;20176;-78
2023/08/26 02:40:56;;;;;;;1.70;1.60;;;;;;;-144.99;100.00;67352.69;5020518;28;20190;-78
2023/08/26 02:43:21;;;;;;;1.63;1.53;;;;;;;-144.99;100.00;67352.69;5010905;28;20250;-78
2023/08/26 02:45:54;;;;;;;5.07;4.77;;;;;;;-144.99;100.00;67352.69;4993822;28;20688;-78
2023/08/26 02:48:20;;;;;;;3.23;2.93;;;;;;;-144.99;100.00;67352.69;5011933;28;20204;-78
2023/08/26 02:50:46;;;;;;;23.20;6.30;;;;;;;-144.99;100.00;67352.69;5012303;28;20223;-78
2023/08/26 02:53:11;;;;;;;4.40;4.00;;;;;;;-144.99;100.00;67352.69;4994591;28;20200;-78
2023/08/26 02:55:37;;;;;;;0.50;0.50;;;;;;;-144.99;100.00;67352.69;5011590;28;20238;-78
2023/08/26 02:58:02;;;;;;;1.57;1.43;;;;;;;-144.99;100.00;67352.69;5016671;28;20191;-78
2023/08/26 03:00:28;;;;;;;1.57;1.47;;;;;;;-144.99;100.00;67352.69;5018483;28;20187;-79
2023/08/26 03:02:53;;;;;;;0.33;0.33;;;;;;;-144.99;100.00;67352.69;5015807;28;20188;-79
2023/08/26 03:05:18;;;;;;;0.73;0.73;;;;;;;-144.99;100.00;67352.69;4997582;28;20204;-79
2023/08/26 03:07:44;;;;;;;4.03;1.60;;;;;;;-144.99;100.00;67352.69;5014545;28;20207;-78
2023/08/26 03:10:09;;;;;;;0.10;0.10;;;;;;;-144.99;100.00;67352.69;5015109;28;20553;-79
2023/08/26 03:12:34;;;;;;;11.60;6.93;;;;;;;-144.99;100.00;67352.69;5015258;28;20627;-78
2023/08/26 03:15:00;;;;;;;3.90;3.37;;;;;;;-144.99;100.00;67352.69;5014701;28;20262;-78
2023/08/26 03:17:25;;;;;;;2.67;2.47;;;;;;;-144.99;100.00;67352.69;5014485;28;20204;-79
2023/08/26 03:19:51;;;;;;;7.17;6.43;;;;;;;-144.99;100.00;67352.69;5014270;28;20184;-78
2023/08/26 03:22:16;;;;;;;8.57;5.97;;;;;;;-144.99;100.00;67352.69;4996356;28;20207;-79
2023/08/26 03:24:42;;;;;;;16.57;12.67;;;;;;;-144.99;100.00;67352.69;5013692;28;20211;-79
2023/08/26 03:27:07;;;;;;;0.93;0.93;;;;;;;-144.99;100.00;67352.69;5013422;28;20236;-78
2023/08/26 03:29:32;;;;;;;8.80;7.87;;;;;;;-144.99;100.00;67352.69;5013619;28;20682;-78
2023/08/26 03:31:58;;;;;;;8.40;7.57;;;;;;;-144.99;100.00;67352.69;4996343;28;20644;-78
2023/08/26 03:34:23;;;;;;;5.30;5.00;;;;;;;-144.99;100.00;67352.69;4995744;28;20208;-78
2023/08/26 03:36:48;;;;;;;10.70;9.67;;;;;;;-144.99;100.00;67352.69;5012244;28;20291;-79
2023/08/26 03:39:13;;;;;;;2.57;2.43;;;;;;;-144.99;100.00;67352.69;5013521;28;20188;-78
2023/08/26 03:41:39;;;;;;;10.90;10.00;;;;;;;-144.99;100.00;67352.69;5012637;28;20242;-78
2023/08/26 03:44:04;;;;;;;4.17;3.87;;;;;;;-144.99;100.00;67352.69;4995316;28;20660;-78
2023/08/26 03:46:30;;;;;;;14.13;10.27;;;;;;;-144.99;100.00;67352.69;4994814;28;20200;-78
2023/08/26 03:48:55;;;;;;;4.47;4.27;;;;;;;-144.99;100.00;67352.69;4995090;28;20281;-78
2023/08/26 03:51:20;;;;;;;5.77;5.23;;;;;;;-144.99;100.00;67352.69;4994973;28;20689;-78
2023/08/26 03:53:46;;;;;;;26.70;7.27;;;;;;;-144.99;100.00;67352.69;5012893;28;20253;-78
2023/08/26 03:56:13;;;;;;;5.83;5.37;;;;;;;-144.99;100.00;67352.69;5015823;28;20200;-79
2023/08/26 03:58:39;;;;;;;6.70;4.33;;;;;;;-144.99;100.00;67352.69;5016019;28;20268;-78
2023/08/26 04:01:04;;;;;;;1.80;1.60;;;;;;;-144.99;100.00;67352.69;5002263;28;20199;-78
2023/08/26 04:03:30;;;;;;;5.30;4.90;;;;;;;-144.99;100.00;67352.69;5002338;28;20180;-79
2023/08/26 04:06:00;;;;;;;3.43;2.60;;;;;;;-144.99;100.00;67352.69;5015293;28;20200;-79
2023/08/26 04:08:25;;;;;;;4.63;3.57;;;;;;;-144.99;100.00;67352.69;5018491;28;20204;-78
2023/08/26 04:10:56;;;;;;;9.83;7.23;;;;;;;-144.99;100.00;67352.69;5017760;28;20195;-79
2023/08/26 04:13:23;;;;;;;1.50;1.40;;;;;;;-144.99;100.00;67352.69;5017948;28;20184;-79
2023/08/26 04:15:48;;;;;;;5.97;5.43;;;;;;;-144.99;100.00;67352.69;4999381;28;20637;-78
2023/08/26 04:18:14;;;;;;;0.70;0.70;;;;;;;-144.99;100.00;67352.69;5017265;28;20184;-79
2023/08/26 04:20:42;;;;;;;3.83;2.90;;;;;;;-144.99;100.00;67352.69;5017175;28;20200;-78
2023/08/26 04:23:08;;;;;;;2.20;2.10;;;;;;;-144.99;100.00;67352.69;5000015;28;20270;-78
2023/08/26 04:25:33;;;;;;;7.40;6.80;;;;;;;-144.99;100.00;67352.69;4998976;28;20243;-79
2023/08/26 04:27:58;;;;;;;6.13;3.90;;;;;;;-144.99;100.00;67352.69;4999403;28;20208;-79
2023/08/26 04:30:23;;;;;;;6.60;6.00;;;;;;;-144.99;100.00;67352.69;4999904;28;20288;-78
2023/08/26 04:32:49;;;;;;;15.20;8.13;;;;;;;-144.99;100.00;67352.69;5017074;28;20208;-79
2023/08/26 04:35:16;;;;;;;12.83;11.13;;;;;;;-144.99;100.00;67352.69;5016776;28;20740;-79
2023/08/26 04:37:41;;;;;;;5.73;5.33;;;;;;;-144.99;100.00;67352.69;5016664;28;20173;-78
2023/08/26 04:40:13;;;;;;;12.47;8.17;;;;;;;-144.99;100.00;67352.69;4999224;28;20268;-78
2023/08/26 04:42:39;;;;;;;11.77;10.27;;;;;;;-144.99;100.00;67352.69;5017112;28;20176;-79
2023/08/26 04:45:05;;;;;;;11.53;3.40;;;;;;;-144.99;100.00;67352.69;5015861;28;20697;-78
2023/08/26 04:47:30;;;;;;;9.47;8.87;;;;;;;-144.99;100.00;67352.69;5015802;28;20207;-84
2023/08/26 04:49:56;;;;;;;3.13;2.90;;;;;;;-144.99;100.00;67352.69;5016657;28;20189;-79
2023/08/26 04:52:21;;;;;;;6.83;5.43;;;;;;;-144.99;100.00;67352.69;4998696;28;20663;-79
2023/08/26 04:54:48;;;;;;;6.97;6.43;;;;;;;-144.99;100.00;67352.69;4998701;28;20654;-79
2023/08/26 04:57:13;;;;;;;3.80;3.50;;;;;;;-144.99;100.00;67352.69;5015813;28;20231;-79
2023/08/26 04:59:39;;;;;;;5.80;5.40;;;;;;;-144.99;100.00;67352.69;4998046;28;20679;-79
2023/08/26 05:02:07;;;;;;;18.53;9.20;;;;;;;-144.99;100.00;67352.69;5016124;28;20291;-79
2023/08/26 05:04:33;;;;;;;21.33;12.77;;;;;;;-144.99;100.00;67352.69;5015956;28;20204;-79
2023/08/26 05:06:58;;;;;;;12.00;9.00;;;;;;;-144.99;100.00;67352.69;4997741;28;20205;-79
2023/08/26 05:09:23;;;;;;;18.20;12.67;;;;;;;-144.99;100.00;67352.69;5015692;28;20196;-79
2023/08/26 05:11:48;;;;;;;9.27;8.43;;;;;;;-144.99;100.00;67352.69;4998215;28;20671;-79
2023/08/26 05:14:14;;;;;;;8.50;6.93;;;;;;;-144.99;100.00;67352.69;4997789;28;20652;-79
2023/08/26 05:16:39;;;;;;;14.13;11.67;;;;;;;-144.99;100.00;67352.69;5015027;28;20239;-79
2023/08/26 05:19:04;;;;;;;19.93;13.87;;;;;;;-144.99;100.00;67352.69;5015759;28;20642;-79
2023/08/26 05:21:31;;;;;;;10.10;8.37;;;;;;;-144.99;100.00;67352.69;5015500;28;20184;-79
2023/08/26 05:23:56;;;;;;;13.53;12.33;;;;;;;-144.99;100.00;67352.69;4999193;28;20208;-79
2023/08/26 05:26:22;;;;;;;7.07;6.57;;;;;;;-144.99;100.00;67352.69;5016535;28;20200;-79
2023/08/26 05:28:47;;;;;;;3.63;3.40;;;;;;;-144.99;100.00;67352.69;5016764;28;20212;-79
2023/08/26 05:31:12;;;;;;;6.97;5.90;;;;;;;-144.99;100.00;67352.69;5016873;28;20260;-80
2023/08/26 05:33:38;;;;;;;9.57;8.10;;;;;;;-144.99;100.00;67352.69;4999513;28;20184;-79
2023/08/26 05:36:03;;;;;;;11.23;10.23;;;;;;;-144.99;100.00;67352.69;5024473;28;20208;-80
2023/08/26 05:38:28;;;;;;;2.20;2.00;;;;;;;-144.99;100.00;67352.69;4999260;28;20240;-79
2023/08/26 05:40:54;;;;;;;17.00;7.13;;;;;;;-144.99;100.00;67352.69;5007307;28;20189;-79
2023/08/26 05:43:19;;;;;;;6.07;2.70;;;;;;;-144.99;100.00;67352.69;5015519;28;20180;-79
2023/08/26 05:45:44;;;;;;;5.20;4.80;;;;;;;-144.99;100.00;67352.69;5012372;28;20751;-78
2023/08/26 05:48:10;;;;;;;5.27;4.87;;;;;;;-144.99;100.00;67352.69;5012992;28;20214;-79
2023/08/26 05:50:36;;;;;;;7.13;6.63;;;;;;;-144.99;100.00;67352.69;5012871;28;20243;-78
2023/08/26 05:53:02;;;;;;;2.83;2.63;;;;;;;-144.99;100.00;67352.69;4995416;28;20185;-78
2023/08/26 05:55:27;;;;;;;2.13;2.03;;;;;;;-144.99;100.00;67352.69;5012612;28;20208;-78
2023/08/26 05:57:52;;;;;;;6.47;5.90;;;;;;;-144.99;100.00;67352.69;5013026;28;20203;-78
2023/08/26 06:00:18;;;;;;;10.10;9.17;;;;;;;-144.99;100.00;67352.69;5013101;28;20560;-78
2023/08/26 06:02:43;;;;;;;2.60;2.43;;;;;;;-144.99;100.00;67352.69;4995286;28;20663;-78
2023/08/26 06:05:08;;;;;;;9.13;8.30;;;;;;;-144.99;100.00;67352.69;5012762;28;20262;-78
2023/08/26 06:07:34;;;;;;;2.67;2.47;;;;;;;-144.99;100.00;67352.69;4994793;28;20208;-78
2023/08/26 06:09:59;;;;;;;3.83;3.53;;;;;;;-144.99;100.00;67352.69;5012973;28;20259;-78
2023/08/26 06:12:24;;;;;;;18.30;9.67;;;;;;;-144.99;100.00;67352.69;5012862;28;20184;-78
2023/08/26 06:14:49;;;;;;;0.47;0.47;;;;;;;-144.99;100.00;67352.69;5012688;28;20212;-78
2023/08/26 06:17:15;;;;;;;10.27;5.87;;;;;;;-144.99;100.00;67352.69;5012204;28;20258;-78
2023/08/26 06:19:40;;;;;;;9.33;5.90;;;;;;;-144.99;100.00;67352.69;4995723;28;20192;-78
2023/08/26 06:22:05;;;;;;;2.60;2.40;;;;;;;-144.99;100.00;67352.69;5013361;28;20191;-78
2023/08/26 06:24:31;;;;;;;8.10;3.33;;;;;;;-144.99;100.00;67352.69;4995649;28;20204;-79
2023/08/26 06:26:56;;;;;;;4.57;4.27;;;;;;;-144.99;100.00;67352.69;4994923;28;20211;-79
2023/08/26 06:29:24;;;;;;;1.17;1.10;;;;;;;-144.99;100.00;67352.69;4995545;28;20188;-78
2023/08/26 06:31:49;;;;;;;11.67;7.67;;;;;;;-144.99;100.00;67352.69;4995752;28;20196;-79
2023/08/26 06:34:14;;;;;;;6.90;6.40;;;;;;;-144.99;100.00;67352.69;5013084;28;20264;-80
2023/08/26 06:36:40;;;;;;;6.50;5.93;;;;;;;-144.99;100.00;67352.69;5019856;28;20180;-79
2023/08/26 06:39:06;;;;;;;3.00;2.77;;;;;;;-144.99;100.00;67352.69;5012336;28;20191;-79
2023/08/26 06:41:34;;;;;;;7.63;6.00;;;;;;;-144.99;100.00;67352.69;5012408;28;20587;-80
2023/08/26 06:43:59;;;;;;;6.97;4.37;;;;;;;-144.99;100.00;67352.69;5012077;28;20294;-82
2023/08/26 06:46:25;;;;;;;3.77;3.47;;;;;;;-144.99;100.00;67352.69;4994007;28;20676;-83
2023/08/26 06:48:50;;;;;;;1.57;1.50;;;;;;;-144.99;100.00;67352.69;4996570;28;20212;-84
2023/08/26 06:51:16;;;;;;;5.00;4.57;;;;;;;-144.99;100.00;67352.69;5005233;28;20282;-84
2023/08/26 06:53:41;;;;;;;8.27;7.63;;;;;;;-144.99;100.00;67352.69;5005655;28;20652;-81
2023/08/26 06:56:07;;;;;;;3.77;3.27;;;;;;;-144.99;100.00;67352.69;5011581;28;20588;-81
2023/08/26 06:58:32;;;;;;;5.83;5.37;;;;;;;-144.99;100.00;67352.69;4994606;28;20187;-80
2023/08/26 07:00:58;;;;;;;7.70;6.90;;;;;;;-144.99;100.00;67352.69;5002246;28;20176;-84
2023/08/26 07:03:24;;;;;;;6.17;5.60;;;;;;;-144.99;100.00;67352.69;4994318;28;20180;-82
2023/08/26 07:05:50;;;;;;;5.73;1.50;;;;;;;-144.99;100.00;67352.69;5011028;28;20192;-84
2023/08/26 07:08:15;;;;;;;1.90;1.40;;;;;;;-144.99;100.00;67352.69;4994412;28;20207;-80
2023/08/26 07:10:42;;;;;;;1.00;1.00;;;;;;;-144.99;100.00;67352.69;4994241;28;20188;-81
2023/08/26 07:13:08;;;;;;;0.80;0.80;;;;;;;-144.99;100.00;67352.69;5010601;28;20660;-81
2023/08/26 07:15:34;;;;;;;1.00;1.00;;;;;;;-144.99;100.00;67352.69;5011182;28;20227;-80
2023/08/26 07:17:59;;;;;;;1.90;0.97;;;;;;;-144.99;100.00;67352.69;4994467;28;20184;-80
2023/08/26 07:20:24;;;;;;;1.70;1.03;;;;;;;-144.99;100.00;67352.69;5012147;28;20209;-81
2023/08/26 07:22:50;;;;;;;1.80;0.77;;;;;;;-144.99;100.00;67352.69;5012377;28;20185;-78
2023/08/26 07:25:17;;;;;;;0.30;0.30;;;;;;;-144.99;100.00;67352.69;4995263;28;20246;-78
2023/08/26 07:27:43;;;;;;;1.97;1.07;;;;;;;-144.99;100.00;67352.69;5012719;28;20199;-78
2023/08/26 07:30:08;;;;;;;0.70;0.47;;;;;;;-144.99;100.00;67352.69;4994447;28;20176;-80
2023/08/26 07:32:33;;;;;;;5.20;0.70;;;;;;;-144.99;100.00;67352.69;5011815;28;20187;-80
2023/08/26 07:34:59;;;;;;;0.63;0.40;;;;;;;-144.99;100.00;67352.69;5011606;28;20211;-79
2023/08/26 07:37:24;;;;;;;0.10;0.10;;;;;;;-144.99;100.00;67352.69;4995091;28;20186;-78
2023/08/26 07:39:50;;;;;;;0.30;0.20;;;;;;;-144.99;100.00;67352.69;4995959;28;20211;-77
2023/08/26 07:42:16;;;;;;;0.67;0.47;;;;;;;-144.99;100.00;67352.69;5013475;28;20731;-79
2023/08/26 07:44:41;;;;;;;0.30;0.30;;;;;;;-144.99;100.00;67352.69;5020169;28;20258;-81
2023/08/26 07:47:07;;;;;;;0.53;0.37;;;;;;;-144.99;100.00;67352.69;5013249;28;20220;-82
2023/08/26 07:49:32;;;;;;;1.53;0.60;;;;;;;-144.99;100.00;67352.69;4998021;28;20266;-82
2023/08/26 07:51:57;;;;;;;0.43;0.43;;;;;;;-144.99;100.00;67352.69;5014860;28;20711;-80
2023/08/26 07:54:23;;;;;;;2.93;0.83;;;;;;;-144.99;100.00;67352.69;4996843;28;20210;-80
2023/08/26 07:56:48;;;;;;;0.70;0.70;;;;;;;-144.99;100.00;67352.69;5014335;28;20186;-83
2023/08/26 07:59:13;;;;;;;0.40;0.40;;;;;;;-144.99;100.00;67352.69;5004005;28;20190;-79
2023/08/26 08:01:39;;;;;;;1.00;0.80;;;;;;;-144.99;100.00;67352.69;5016494;28;20180;-78
2023/08/26 08:04:04;;;;;;;1.20;0.43;;;;;;;-144.99;100.00;67352.69;4996443;28;20592;-79
2023/08/26 08:06:30;;;;;;;0.53;0.43;;;;;;;-144.99;100.00;67352.69;5014170;28;20184;-79
2023/08/26 08:08:55;;;;;;;0.30;0.30;;;;;;;-144.99;100.00;67352.69;5028357;28;20207;-79
2023/08/26 08:11:20;;;;;;;0.47;0.47;;;;;;;-144.99;100.00;67352.69;4995147;28;20714;-80
2023/08/26 08:13:46;;;;;;;0.40;0.40;;;;;;;-144.99;100.00;67352.69;5011690;28;20176;-79
2023/08/26 08:16:11;;;;;;;0.30;0.30;;;;;;;-144.99;100.00;67352.69;5013125;28;20204;-80
2023/08/26 08:18:37;;;;;;;3.00;0.67;;;;;;;-144.99;100.00;67352.69;5023918;28;20168;-79
2023/08/26 08:21:04;;;;;;;0.30;0.30;;;;;;;-144.99;100.00;67352.69;5032891;28;20551;-78
2023/08/26 08:23:29;;;;;;;0.20;0.20;;;;;;;-144.99;100.00;67352.69;5032756;28;20180;-79
2023/08/26 08:25:55;;;;;;;9.57;1.37;;;;;;;-144.99;100.00;67352.69;5031990;28;20206;-80
2023/08/26 08:28:20;;;;;;;0.23;0.23;;;;;;;-144.99;100.00;67352.69;5014756;28;20576;-79
2023/08/26 08:30:45;;;;;;;0.20;0.20;;;;;;;-144.99;100.00;67352.69;5032194;28;20551;-78
2023/08/26 08:33:11;;;;;;;0.83;0.27;;;;;;;-144.99;100.00;67352.69;5032880;28;20176;-79
2023/08/26 08:35:37;;;;;;;0.37;0.37;;;;;;;-144.99;100.00;67352.69;5031800;28;20636;-78
2023/08/26 08:38:02;;;;;;;0.10;0.10;;;;;;;-144.99;100.00;67352.69;5032364;28;20183;-79
2023/08/26 08:40:28;;;;;;;1.97;0.40;;;;;;;-144.99;100.00;67352.69;5032068;28;20176;-79
2023/08/26 08:42:57;;;;;;;0.30;0.30;;;;;;;-144.99;100.00;67352.69;5031896;28;20180;-78
2023/08/26 08:45:23;;;;;;;0.17;0.17;;;;;;;-144.99;100.00;67352.69;5014156;28;20203;-78
2023/08/26 08:47:52;;;;;;;0.87;0.30;;;;;;;-144.99;100.00;67352.69;5035421;28;20698;-78
2023/08/26 08:50:18;;;;;;;0.33;0.30;;;;;;;-144.99;100.00;67352.69;5035976;28;20660;-78
2023/08/26 08:52:44;;;;;;;0.87;0.50;;;;;;;-144.99;100.00;67352.69;5035445;28;20188;-79
2023/08/26 08:55:09;;;;;;;1.17;1.13;;;;;;;-144.99;100.00;67352.69;5017446;28;20264;-79
2023/08/26 08:57:35;;;;;;;0.43;0.43;;;;;;;-144.99;100.00;67352.69;5034860;28;20178;-78
2023/08/26 09:00:03;;;;;;;0.10;0.10;;;;;;;-144.99;100.00;67352.69;5034740;28;20571;-79
2023/08/26 09:02:29;;;;;;;0.50;0.20;;;;;;;-144.99;100.00;67352.69;5016372;28;20246;-79
2023/08/26 09:04:54;;;;;;;0.30;0.23;;;;;;;-144.99;100.00;67352.69;5015815;28;20208;-79
2023/08/26 09:07:21;;;;;;;6.00;1.27;;;;;;;-144.99;100.00;67352.69;5015388;28;20199;-79
2023/08/26 09:09:46;;;;;;;1.40;0.20;;;;;;;-144.99;100.00;67352.69;5015969;28;20266;-79
2023/08/26 09:12:12;;;;;;;1.60;0.67;;;;;;;-144.99;100.00;67352.69;5033561;28;20636;-78
2023/08/26 09:14:37;;;;;;;0.30;0.30;;;;;;;-144.99;100.00;67352.69;5015871;28;20254;-78
2023/08/26 09:17:17;;;;;;;0.30;0.30;;;;;;;-144.99;100.00;67352.69;5015200;28;20183;-78
2023/08/26 09:19:58;;;;;;;0.43;0.43;;;;;;;-144.99;100.00;67352.69;5033782;28;20203;-78
2023/08/26 09:22:25;;;;;;;0.37;0.37;;;;;;;-144.99;100.00;67352.69;5033640;28;20245;-79
2023/08/26 09:25:08;;;;;;;0.40;0.40;;;;;;;-144.99;100.00;67352.69;5033802;28;20227;-78
2023/08/26 09:27:39;;;;;;;0.83;0.60;;;;;;;-144.99;100.00;67352.69;5015644;28;20287;-78
2023/08/26 09:30:06;;;;;;;0.30;0.30;;;;;;;-144.99;100.00;67352.69;5033901;28;20585;-78
2023/08/26 09:32:33;;;;;;;8.53;0.83;;;;;;;-144.99;100.00;67352.69;5034085;28;20731;-79
2023/08/26 09:35:15;;;;;;;0.40;0.40;;;;;;;-144.99;100.00;67352.69;5034077;28;20192;-78
2023/08/26 09:37:57;;;;;;;0.83;0.83;;;;;;;-144.99;100.00;67352.69;5033207;28;20183;-78
2023/08/26 09:40:23;;;;;;;0.20;0.20;;;;;;;-144.99;100.00;67352.69;5033710;28;20183;-78
2023/08/26 09:42:50;;;;;;;2.80;1.00;;;;;;;-144.99;100.00;67352.69;5033612;28;20172;-78
2023/08/26 09:45:17;;;;;;;0.20;0.10;;;;;;;-144.99;100.00;67352.69;5015546;28;20204;-78
2023/08/26 09:47:44;;;;;;;0.20;0.20;;;;;;;-144.99;100.00;67352.69;5032830;28;20192;-78
2023/08/26 09:50:10;;;;;;;1.80;0.50;;;;;;;-144.99;100.00;67352.69;5016052;28;20183;-79
2023/08/26 09:52:44;;;;;;;0.77;0.40;;;;;;;-144.99;100.00;67352.69;5033523;28;20239;-78
2023/08/26 09:55:11;;;;;;;1.47;0.57;;;;;;;-144.99;100.00;67352.69;5015672;28;20298;-79
2023/08/26 09:57:36;;;;;;;1.27;0.90;;;;;;;-144.99;100.00;67352.69;5014616;28;20215;-79
2023/08/26 10:00:03;;;;;;;1.00;0.60;;;;;;;-144.99;100.00;67352.69;5015742;28;20172;-79
2023/08/26 10:02:30;;;;;;;0.43;0.43;;;;;;;-144.99;100.00;67352.69;5015933;28;20473;-78
2023/08/26 10:05:00;;;;;;;1.17;0.63;;;;;;;-144.99;100.00;67352.69;5033542;28;20210;-78
2023/08/26 10:07:27;;;;;;;0.53;0.53;;;;;;;-144.99;100.00;67352.69;5032713;28;20271;-78
2023/08/26 10:10:06;;;;;;;0.53;0.43;;;;;;;-144.99;100.00;67352.69;5033443;28;20180;-80
2023/08/26 10:12:39;;;;;;;0.10;0.10;;;;;;;-144.99;100.00;67352.69;5016146;28;20190;-79
2023/08/26 10:15:09;;;;;;;0.30;0.30;;;;;;;-144.99;100.00;67352.69;5019261;28;20568;-80
2023/08/26 10:17:36;;;;;;;0.50;0.50;;;;;;;-144.99;100.00;67352.69;5035966;28;20186;-80
2023/08/26 10:20:02;;;;;;;0.10;0.10;;;;;;;-144.99;100.00;67352.69;5034878;28;20560;-78
2023/08/26 10:22:27;;;;;;;1.07;0.63;;;;;;;-144.99;100.00;67352.69;5034855;28;20179;-79
2023/08/26 10:24:53;;;;;;;0.70;0.60;;;;;;;-144.99;100.00;67352.69;5036547;28;20192;-78
2023/08/26 10:27:18;;;;;;;6.03;0.43;;;;;;;-144.99;100.00;67352.69;5033531;28;20206;-79
2023/08/26 10:29:45;;;;;;;0.80;0.80;;;;;;;-144.99;100.00;67352.69;5017312;28;20184;-80
2023/08/26 10:32:15;;;;;;;1.77;0.80;;;;;;;-144.99;100.00;67352.69;5034011;28;20218;-79
2023/08/26 10:34:54;;;;;;;1.20;0.50;;;;;;;-144.99;100.00;67352.69;5017192;28;20210;-80
2023/08/26 10:37:31;;;;;;;1.50;0.63;;;;;;;-144.99;100.00;67352.69;5033782;28;20232;-80
2023/08/26 10:40:06;;;;;;;0.80;0.30;;;;;;;-144.99;100.00;67352.69;5034655;28;20309;-79
2023/08/26 10:42:31;;;;;;;0.50;0.50;;;;;;;-144.99;100.00;67352.69;5020258;28;20213;-79
2023/08/26 10:44:57;;;;;;;0.20;0.20;;;;;;;-144.99;100.00;67352.69;5041380;28;20211;-79
2023/08/26 10:47:45;;;;;;;0.57;0.50;;;;;;;-144.99;100.00;67352.69;5038532;28;20757;-79
2023/08/26 10:50:22;;;;;;;1.00;0.67;;;;;;;-144.99;100.00;67352.69;5038979;28;20175;-79
2023/08/26 10:52:58;;;;;;;0.97;0.50;;;;;;;-144.99;100.00;67352.69;5037244;28;20182;-80
2023/08/26 10:55:30;;;;;;;1.60;0.60;;;;;;;-144.99;100.00;67352.69;5034773;28;20218;-79
2023/08/26 10:58:09;;;;;;;5.70;0.40;;;;;;;-144.99;100.00;67352.69;5035283;28;20552;-80
2023/08/26 11:00:39;;;;;;;8.23;0.97;;;;;;;-144.99;100.00;67352.69;5034938;28;20176;-79
2023/08/26 11:03:08;;;;;;;0.63;0.60;;;;;;;-144.99;100.00;67352.69;5034645;28;20281;-79
2023/08/26 11:05:36;;;;;;;3.40;0.63;;;;;;;-144.99;100.00;67352.69;5034470;28;20202;-79
2023/08/26 11:08:02;;;;;;;0.10;0.10;;;;;;;-144.99;100.00;67352.69;5033228;28;20214;-78